Terminal Aerodrome Forecast
Issued by NWS Pocatello, ID

Home | Current Version | Previous Version | Text Only | Print | Product List | Glossary On
Versions: 1 2 3 4 5 6 7 8 9 10 11 12 13 14 15 16 17 18 19 20 21 22 23 24 25 26 27 28 29 30
000
FTUS45 KPIH 070907 AAA
TAFIDA
TAF AMD
KIDA 070907Z 0709/0806 VRB05KT P6SM SCT020 BKN100
     FM071100 35007KT 5SM BR OVC015
     FM072000 33005KT P6SM SCT012=

USA.gov is the U.S. government's official web portal to all federal, state and local government web resources and services.